Evansville, Indiana
Current Conditions -  °F | °C
As of 6:54 AM on Sunday 21 Dec 2014 (Local Time) from KEVV Reporting Station
Haze Haze  
Wind Chill: 27°   Ceiling: Unl
Heat Index: 27°   Visibility: 4mi
Dew Point: 23°   Wind: 3mph
Humidity: 85%   Direction: 30°NNE
Pressure: 30.3"   Gusts: NA
Location:  37.98°N, 87.56°W
Report Text: KEVV 211254Z 03003KT 4SM BR CLR M03/M05 A3030 RMK AO2 SLP264 T10281050
Loading
Personal Weather Stations






























Interactive Weather Map New forecast layout! Learn more

10-Day Weather Forecast

Advertisements
Track Severe Weather on mobile